Time;durP1;ratioP1;P1;durP2;ratioP2;P2;SDS_P1;SDS_P2;PMS_P1;PMS_P2;Temp;Humidity;BMP_temperature;BMP_pressure;BME280_temperature;BME280_humidity;BME280_pressure;Samples;Min_cycle;Max_cycle;Signal;HPM_P1;HPM_P2
2023/12/12 00:01:03;;;;;;;2.95;1.50;;;6.70;99.90;;;;;;5070803;28;20217;-71
2023/12/12 00:03:30;;;;;;;7.57;1.60;;;6.70;99.90;;;;;;5070731;28;20208;-70
2023/12/12 00:05:57;;;;;;;3.63;1.63;;;6.60;99.90;;;;;;5070683;28;20212;-69
2023/12/12 00:08:25;;;;;;;4.00;1.55;;;6.60;99.90;;;;;;5070248;28;20261;-70
2023/12/12 00:10:52;;;;;;;2.13;1.20;;;6.70;99.90;;;;;;5070883;28;20223;-71
2023/12/12 00:13:18;;;;;;;4.07;1.20;;;6.70;99.90;;;;;;5070294;28;20200;-71
2023/12/12 04:32:01;;;;;;;1.75;1.08;;;6.60;99.90;;;;;;5464406;22;20229;-74
2023/12/12 04:34:31;;;;;;;1.40;1.02;;;6.50;99.90;;;;;;5028404;28;20217;-73
2023/12/12 04:36:59;;;;;;;0.90;0.80;;;6.50;99.90;;;;;;5030077;28;20209;-73
2023/12/12 04:39:25;;;;;;;1.10;1.00;;;6.50;99.90;;;;;;5030141;28;20198;-74
2023/12/12 04:41:52;;;;;;;2.30;1.20;;;6.50;99.90;;;;;;5029901;28;20229;-73
2023/12/12 04:44:19;;;;;;;1.75;1.60;;;6.50;99.90;;;;;;5034805;28;20210;-73
2023/12/12 04:46:46;;;;;;;1.30;1.10;;;6.50;99.90;;;;;;5032061;28;20198;-73
2023/12/12 04:49:14;;;;;;;1.55;1.40;;;6.50;99.90;;;;;;5029663;28;20202;-73
2023/12/12 04:54:08;;;;;;;1.02;0.90;;;6.50;99.90;;;;;;5052460;28;20301;-74
2023/12/12 04:56:35;;;;;;;1.65;1.20;;;6.50;99.90;;;;;;5055209;28;20209;-74
2023/12/12 04:59:02;;;;;;;2.85;1.23;;;6.50;99.90;;;;;;5056271;28;20582;-74
2023/12/12 05:01:28;;;;;;;0.82;0.70;;;6.50;99.90;;;;;;5044217;28;20226;-74
2023/12/12 05:03:55;;;;;;;1.50;1.13;;;6.50;99.90;;;;;;5035966;28;20201;-74
2023/12/12 05:06:23;;;;;;;1.20;1.10;;;6.50;99.90;;;;;;5035461;28;20588;-74
2023/12/12 05:08:50;;;;;;;4.75;1.23;;;6.50;99.90;;;;;;5037701;28;20194;-74
2023/12/12 05:11:17;;;;;;;1.50;1.40;;;6.50;99.90;;;;;;5034046;28;20222;-75
2023/12/12 05:13:44;;;;;;;3.50;1.05;;;6.40;99.90;;;;;;5034340;28;20294;-74
2023/12/12 05:16:11;;;;;;;1.40;0.95;;;6.40;99.90;;;;;;5036271;28;20205;-74
2023/12/12 05:18:37;;;;;;;2.00;1.40;;;6.30;99.90;;;;;;5042900;28;20944;-74
2023/12/12 05:21:05;;;;;;;1.20;1.10;;;6.30;99.90;;;;;;5038651;28;20302;-74
2023/12/12 05:23:33;;;;;;;3.30;1.08;;;6.20;99.90;;;;;;5035840;28;20202;-74
2023/12/12 05:26:00;;;;;;;1.55;1.13;;;6.20;99.90;;;;;;5033543;28;20209;-74
2023/12/12 05:28:27;;;;;;;2.03;1.33;;;6.10;99.90;;;;;;5034038;28;20559;-74
2023/12/12 05:30:54;;;;;;;1.15;1.05;;;6.10;99.90;;;;;;5035767;28;20312;-74
2023/12/12 05:33:21;;;;;;;1.17;1.00;;;6.00;99.90;;;;;;5039469;28;20206;-74
2023/12/12 05:35:49;;;;;;;1.80;0.90;;;6.00;99.90;;;;;;5042321;28;20213;-74
2023/12/12 05:38:16;;;;;;;0.80;0.77;;;6.00;99.90;;;;;;5042400;28;20208;-74
2023/12/12 05:40:44;;;;;;;1.33;1.13;;;6.00;99.90;;;;;;5036320;28;20574;-74
2023/12/12 05:43:11;;;;;;;2.13;0.98;;;6.00;99.90;;;;;;5035771;28;20205;-74
2023/12/12 05:45:37;;;;;;;2.20;1.00;;;6.00;99.90;;;;;;5035795;28;20210;-75
2023/12/12 05:48:04;;;;;;;1.70;1.02;;;5.90;99.90;;;;;;5041245;28;20205;-75
2023/12/12 05:50:31;;;;;;;1.52;1.00;;;5.90;99.90;;;;;;5041071;28;20698;-74
2023/12/12 05:52:58;;;;;;;1.50;0.98;;;5.90;99.90;;;;;;5041055;28;20210;-75
2023/12/12 05:55:25;;;;;;;1.63;1.10;;;5.90;99.90;;;;;;5040291;28;20202;-74
2023/12/12 05:57:53;;;;;;;4.28;1.60;;;5.90;99.90;;;;;;5041604;28;20593;-74
2023/12/12 06:00:20;;;;;;;1.75;1.45;;;6.00;99.90;;;;;;5041016;28;20205;-74
2023/12/12 06:02:47;;;;;;;0.95;0.85;;;6.00;99.90;;;;;;5040966;28;20697;-73
2023/12/12 06:05:13;;;;;;;1.10;1.00;;;6.00;99.90;;;;;;5041611;28;20205;-75
2023/12/12 06:07:41;;;;;;;0.90;0.80;;;6.00;99.90;;;;;;5039779;28;20214;-74
2023/12/12 06:10:09;;;;;;;2.50;1.25;;;6.00;99.90;;;;;;5041693;28;20225;-74
2023/12/12 06:12:35;;;;;;;1.20;1.00;;;6.00;99.90;;;;;;5039643;28;20225;-75
2023/12/12 06:15:07;;;;;;;1.70;1.20;;;6.10;99.90;;;;;;5042409;28;20613;-74
2023/12/12 06:17:34;;;;;;;1.75;1.10;;;6.10;99.90;;;;;;5035149;28;20257;-74
2023/12/12 06:20:01;;;;;;;1.33;1.10;;;6.10;99.90;;;;;;5041624;28;20201;-74
2023/12/12 06:22:27;;;;;;;7.05;2.05;;;6.10;99.90;;;;;;5039178;28;20896;-74
2023/12/12 06:24:54;;;;;;;3.70;1.50;;;6.20;99.90;;;;;;5040642;28;20254;-74
2023/12/12 06:27:21;;;;;;;1.10;1.00;;;6.20;99.90;;;;;;5039503;28;20664;-74
2023/12/12 06:29:49;;;;;;;1.20;0.95;;;6.20;99.90;;;;;;5039407;28;20205;-74
2023/12/12 06:32:17;;;;;;;2.58;1.20;;;6.20;99.90;;;;;;5040484;28;20224;-73
2023/12/12 06:34:45;;;;;;;3.08;1.70;;;6.20;99.90;;;;;;5033999;28;20218;-74
2023/12/12 06:37:11;;;;;;;4.35;1.35;;;6.30;99.90;;;;;;5040347;28;20292;-74
2023/12/12 06:39:37;;;;;;;2.03;1.83;;;6.30;99.90;;;;;;5038531;28;20293;-74
2023/12/12 06:42:05;;;;;;;2.50;1.63;;;6.40;99.90;;;;;;5040791;28;20479;-75
2023/12/12 06:44:31;;;;;;;1.58;1.10;;;6.40;99.90;;;;;;5034590;28;20221;-73
2023/12/12 06:46:58;;;;;;;1.60;1.30;;;6.50;99.90;;;;;;5039229;28;20205;-73
2023/12/12 06:49:26;;;;;;;1.60;1.10;;;6.60;99.90;;;;;;5036318;28;20225;-73
2023/12/12 06:51:53;;;;;;;0.90;0.90;;;6.60;99.90;;;;;;5037654;28;20225;-74
2023/12/12 06:54:20;;;;;;;1.60;1.30;;;6.60;99.90;;;;;;5038701;28;20216;-73
2023/12/12 06:56:47;;;;;;;1.45;0.95;;;6.70;99.90;;;;;;5036565;28;20206;-73
2023/12/12 06:59:14;;;;;;;3.75;1.10;;;6.70;99.90;;;;;;5038923;28;20231;-74
2023/12/12 07:01:41;;;;;;;1.80;1.33;;;6.70;99.90;;;;;;5037349;28;20688;-73
2023/12/12 07:04:07;;;;;;;1.50;1.35;;;6.70;99.90;;;;;;5039511;28;20201;-73
2023/12/12 07:06:36;;;;;;;5.05;1.33;;;6.80;99.90;;;;;;5036942;28;20214;-74
2023/12/12 07:09:03;;;;;;;1.55;1.17;;;6.80;99.90;;;;;;5039036;28;20213;-73
2023/12/12 07:11:29;;;;;;;1.88;1.50;;;6.80;99.90;;;;;;5027244;28;20230;-73
2023/12/12 07:13:56;;;;;;;2.10;1.50;;;6.80;99.90;;;;;;5037309;28;20582;-73
2023/12/12 07:16:24;;;;;;;2.95;1.55;;;6.80;99.90;;;;;;5033216;28;20210;-74
2023/12/12 07:18:50;;;;;;;1.30;1.20;;;6.80;99.90;;;;;;5036744;28;20306;-72
2023/12/12 07:21:17;;;;;;;3.97;1.55;;;6.80;99.90;;;;;;5037560;28;20228;-74
2023/12/12 07:23:47;;;;;;;1.75;1.58;;;6.70;99.90;;;;;;5036452;28;20210;-75
2023/12/12 07:26:16;;;;;;;3.97;1.60;;;6.70;99.90;;;;;;5033881;28;20201;-74
2023/12/12 07:28:43;;;;;;;1.30;1.20;;;6.80;99.90;;;;;;5035981;28;20260;-74
2023/12/12 07:31:11;;;;;;;1.85;1.20;;;6.80;99.90;;;;;;5037294;28;20229;-74
2023/12/12 07:33:37;;;;;;;1.50;1.33;;;6.80;99.90;;;;;;5035777;28;20210;-73
2023/12/12 07:36:05;;;;;;;1.73;1.55;;;6.80;99.90;;;;;;5037383;28;20216;-73
2023/12/12 07:38:32;;;;;;;1.75;1.50;;;6.80;99.90;;;;;;5035013;28;20284;-74
2023/12/12 07:41:01;;;;;;;6.65;1.55;;;6.80;99.90;;;;;;5036333;28;20229;-73
2023/12/12 07:43:28;;;;;;;1.25;1.15;;;6.90;99.90;;;;;;5035881;28;20202;-71
2023/12/12 07:45:55;;;;;;;1.92;1.73;;;6.90;99.90;;;;;;5034977;28;20586;-74
2023/12/12 07:48:22;;;;;;;4.00;1.70;;;6.90;99.90;;;;;;5034272;28;20201;-74
2023/12/12 07:50:52;;;;;;;1.55;1.45;;;6.90;99.90;;;;;;5035164;28;20236;-72
2023/12/12 07:53:19;;;;;;;4.25;2.28;;;7.00;99.90;;;;;;5036304;28;20647;-74
2023/12/12 07:55:46;;;;;;;4.43;1.67;;;7.00;99.90;;;;;;5035120;28;20218;-73
2023/12/12 07:58:14;;;;;;;2.83;1.70;;;7.10;99.90;;;;;;5036343;28;20205;-73
2023/12/12 08:00:41;;;;;;;2.60;2.05;;;7.10;99.90;;;;;;5034941;28;20240;-73
2023/12/12 08:03:08;;;;;;;3.45;2.50;;;7.10;99.90;;;;;;5036576;28;20206;-73
2023/12/12 08:05:37;;;;;;;2.50;2.30;;;7.10;99.90;;;;;;5035066;28;20697;-73
2023/12/12 08:08:04;;;;;;;5.10;2.88;;;7.10;99.90;;;;;;5035806;28;20679;-73
2023/12/12 08:10:31;;;;;;;5.22;2.70;;;7.10;99.90;;;;;;5034372;28;20222;-73
2023/12/12 08:12:58;;;;;;;3.70;1.58;;;7.10;99.90;;;;;;5035486;28;20212;-72
2023/12/12 08:15:26;;;;;;;2.50;2.13;;;7.10;99.90;;;;;;5037666;28;20208;-73
2023/12/12 08:17:53;;;;;;;1.73;1.58;;;7.20;99.90;;;;;;5035676;28;20210;-74
2023/12/12 08:20:20;;;;;;;3.00;1.55;;;7.20;99.90;;;;;;5034920;28;20292;-74
2023/12/12 08:22:46;;;;;;;2.10;1.80;;;7.20;99.90;;;;;;5033644;28;20582;-73
2023/12/12 08:25:13;;;;;;;2.50;1.50;;;7.20;99.90;;;;;;5034747;28;20201;-72
2023/12/12 08:27:40;;;;;;;1.77;1.38;;;7.20;99.90;;;;;;5033767;28;20209;-72
2023/12/12 08:30:08;;;;;;;1.60;1.50;;;7.20;99.90;;;;;;5035014;28;20576;-73
2023/12/12 08:32:37;;;;;;;1.75;1.50;;;7.30;99.90;;;;;;5033540;28;20229;-72
2023/12/12 08:35:04;;;;;;;1.83;1.35;;;7.30;99.90;;;;;;5035698;28;20206;-73
2023/12/12 08:37:31;;;;;;;4.03;2.35;;;7.40;99.90;;;;;;5035003;28;20205;-73
2023/12/12 08:39:58;;;;;;;2.45;1.77;;;7.40;99.90;;;;;;5035061;28;20213;-72
2023/12/12 08:42:25;;;;;;;4.38;1.83;;;7.40;99.90;;;;;;5032364;28;20705;-73
2023/12/12 08:44:52;;;;;;;2.00;1.63;;;7.40;99.90;;;;;;5032268;28;20338;-73
2023/12/12 08:47:18;;;;;;;1.45;1.35;;;7.30;99.90;;;;;;5034321;28;20210;-72
2023/12/12 08:49:47;;;;;;;3.25;2.33;;;7.30;99.90;;;;;;5033301;28;20209;-73
2023/12/12 08:52:14;;;;;;;2.35;1.88;;;7.40;99.90;;;;;;5036013;28;20226;-72
2023/12/12 08:54:44;;;;;;;2.22;1.83;;;7.50;99.90;;;;;;5036837;28;20206;-73
2023/12/12 08:57:12;;;;;;;3.55;3.25;;;7.60;99.90;;;;;;5037731;28;20210;-72
2023/12/12 08:59:39;;;;;;;2.50;2.05;;;7.70;99.90;;;;;;5036807;28;20262;-73
2023/12/12 09:02:05;;;;;;;2.30;1.80;;;7.70;99.90;;;;;;5036747;28;20221;-74
2023/12/12 09:04:33;;;;;;;2.22;2.03;;;7.80;99.90;;;;;;5036831;28;20556;-73
2023/12/12 09:07:01;;;;;;;1.98;1.65;;;7.80;99.90;;;;;;5036663;28;20210;-71
2023/12/12 09:09:28;;;;;;;1.70;1.55;;;7.90;99.90;;;;;;5028961;28;20206;-74
2023/12/12 09:11:55;;;;;;;2.95;1.63;;;7.90;99.90;;;;;;5036316;28;20819;-75
2023/12/12 09:14:21;;;;;;;1.90;1.60;;;7.90;99.90;;;;;;5152643;22;20545;-73
2023/12/12 09:16:48;;;;;;;1.35;1.25;;;7.90;99.90;;;;;;5091016;22;20230;-73
2023/12/12 09:19:16;;;;;;;1.70;1.30;;;7.90;99.90;;;;;;5016992;28;20214;-73
2023/12/12 09:21:43;;;;;;;2.17;1.60;;;7.90;99.90;;;;;;5003433;28;20285;-74
2023/12/12 09:24:13;;;;;;;1.35;1.25;;;7.90;99.90;;;;;;4997110;28;20211;-74
2023/12/12 09:26:39;;;;;;;2.10;1.50;;;7.90;99.90;;;;;;4997630;28;20215;-73
2023/12/12 09:29:06;;;;;;;6.05;1.63;;;8.00;99.90;;;;;;4995392;28;20270;-74
2023/12/12 09:31:34;;;;;;;1.42;1.33;;;8.00;99.90;;;;;;4995058;28;20259;-73
2023/12/12 09:34:01;;;;;;;1.58;1.48;;;8.00;99.90;;;;;;4994355;28;20211;-73
2023/12/12 09:36:29;;;;;;;1.65;1.40;;;8.00;99.90;;;;;;5002570;28;20688;-73
2023/12/12 09:38:57;;;;;;;1.35;1.20;;;8.10;99.90;;;;;;4994158;28;20214;-74
2023/12/12 09:41:25;;;;;;;1.40;1.10;;;8.00;99.90;;;;;;4995135;28;20374;-74
2023/12/12 09:43:53;;;;;;;1.70;1.55;;;8.00;99.90;;;;;;4995093;28;20204;-75
2023/12/12 09:46:20;;;;;;;2.33;2.00;;;7.90;99.90;;;;;;4995157;28;20208;-76
2023/12/12 09:48:49;;;;;;;1.15;1.05;;;7.90;99.90;;;;;;4994462;28;20587;-75
2023/12/12 09:51:16;;;;;;;1.33;1.23;;;7.90;99.90;;;;;;4994616;28;20231;-75
2023/12/12 09:53:46;;;;;;;2.17;1.30;;;7.90;99.90;;;;;;4994790;28;20582;-75
2023/12/12 09:56:14;;;;;;;1.55;1.45;;;7.80;99.90;;;;;;4994367;28;20238;-75
2023/12/12 09:58:44;;;;;;;1.30;1.20;;;7.80;99.90;;;;;;4994226;28;20211;-77
2023/12/12 10:01:12;;;;;;;1.30;1.13;;;7.80;99.90;;;;;;4994167;28;20234;-75
2023/12/12 10:03:40;;;;;;;1.00;0.90;;;7.70;99.90;;;;;;4993923;28;20577;-74
2023/12/12 10:06:09;;;;;;;1.30;1.13;;;7.70;99.90;;;;;;4994152;28;20210;-75
2023/12/12 10:08:36;;;;;;;1.30;1.10;;;7.70;99.90;;;;;;4993907;28;20204;-74
2023/12/12 10:11:05;;;;;;;1.80;1.05;;;7.70;99.90;;;;;;4993491;28;20302;-75
2023/12/12 10:16:26;;;;;;;1.27;0.90;;;7.70;99.90;;;;;;5129180;27;20545;-72
2023/12/12 10:18:52;;;;;;;2.22;1.60;;;7.70;99.90;;;;;;5113099;28;20199;-71
2023/12/12 10:21:21;;;;;;;1.38;1.10;;;7.70;99.90;;;;;;5117393;28;20222;-72
2023/12/12 10:23:49;;;;;;;3.78;1.20;;;7.70;99.90;;;;;;5108669;28;20218;-72
2023/12/12 10:26:23;;;;;;;1.13;1.02;;;7.70;99.90;;;;;;5108025;28;20207;-72
2023/12/12 10:28:50;;;;;;;2.05;1.20;;;7.70;99.90;;;;;;5108471;28;20195;-72
2023/12/12 10:31:19;;;;;;;1.25;1.02;;;7.70;99.90;;;;;;5108138;28;20230;-72
2023/12/12 10:33:47;;;;;;;1.08;0.98;;;7.70;99.90;;;;;;5108296;28;20598;-72
2023/12/12 10:36:14;;;;;;;4.05;1.38;;;7.70;99.90;;;;;;5108039;28;20655;-72
2023/12/12 10:38:41;;;;;;;2.08;1.45;;;7.70;99.90;;;;;;5108488;28;20204;-72
2023/12/12 10:41:12;;;;;;;1.30;1.20;;;7.70;99.90;;;;;;5108124;28;20431;-72
2023/12/12 10:43:40;;;;;;;1.88;1.38;;;7.70;99.90;;;;;;5108427;28;20211;-72
2023/12/12 10:46:10;;;;;;;1.83;1.30;;;7.80;99.90;;;;;;5107965;28;20574;-72
2023/12/12 10:48:42;;;;;;;2.35;1.00;;;7.80;99.90;;;;;;5107603;28;20231;-72
2023/12/12 10:51:11;;;;;;;1.38;1.25;;;7.80;99.90;;;;;;5107682;28;20219;-72
2023/12/12 10:53:38;;;;;;;2.20;1.73;;;7.80;99.90;;;;;;5108479;28;20200;-72
2023/12/12 10:56:07;;;;;;;1.20;1.10;;;7.80;99.90;;;;;;5107828;28;20600;-72
2023/12/12 10:58:36;;;;;;;1.80;1.42;;;7.80;99.90;;;;;;5100648;28;20672;-72
2023/12/12 11:01:04;;;;;;;1.15;1.05;;;7.90;99.90;;;;;;5108177;28;20216;-72
2023/12/12 11:03:31;;;;;;;2.33;1.40;;;7.90;99.90;;;;;;5107233;28;20216;-72
2023/12/12 11:05:59;;;;;;;1.45;1.20;;;7.90;99.90;;;;;;5107967;28;20250;-72
2023/12/12 11:08:28;;;;;;;1.30;1.02;;;8.00;99.90;;;;;;5107841;28;20307;-72
2023/12/12 11:10:55;;;;;;;2.75;1.60;;;8.00;99.90;;;;;;5107705;28;20248;-73
2023/12/12 11:13:26;;;;;;;1.10;1.00;;;8.10;99.90;;;;;;5107307;28;20207;-72
2023/12/12 11:15:56;;;;;;;1.40;1.10;;;8.20;99.90;;;;;;5107610;28;20220;-72
2023/12/12 11:18:22;;;;;;;1.70;1.30;;;8.20;99.90;;;;;;5107078;28;20203;-72
2023/12/12 11:20:49;;;;;;;1.60;1.17;;;8.30;99.90;;;;;;5107552;28;20247;-72
2023/12/12 11:23:52;;;;;;;1.73;1.50;;;8.40;99.90;;;;;;5107887;28;20212;-72
2023/12/12 11:26:23;;;;;;;2.10;1.48;;;8.50;99.90;;;;;;5102095;28;20201;-72
2023/12/12 11:28:50;;;;;;;1.10;1.02;;;8.60;99.90;;;;;;5093868;28;20209;-72
2023/12/12 11:31:26;;;;;;;1.70;1.23;;;8.60;99.90;;;;;;5093689;28;20225;-72
2023/12/12 11:34:07;;;;;;;1.70;1.35;;;8.60;99.90;;;;;;5092419;28;20200;-72
2023/12/12 11:36:50;;;;;;;1.23;1.00;;;8.60;99.90;;;;;;5093103;28;20311;-71
2023/12/12 11:39:26;;;;;;;3.10;1.35;;;8.70;99.90;;;;;;5093437;28;20199;-71
2023/12/12 11:41:55;;;;;;;2.65;1.60;;;8.70;99.90;;;;;;5092620;28;20581;-73
2023/12/12 11:44:22;;;;;;;1.20;1.10;;;8.70;99.90;;;;;;5093498;28;20567;-73
2023/12/12 11:46:51;;;;;;;1.23;1.10;;;8.80;99.90;;;;;;5093828;28;20591;-71
2023/12/12 11:49:19;;;;;;;2.03;1.20;;;8.80;99.90;;;;;;5093037;28;20205;-76
2023/12/12 11:51:49;;;;;;;2.15;1.60;;;8.80;99.90;;;;;;5095124;28;20225;-82
2023/12/12 11:54:24;;;;;;;1.70;1.20;;;8.80;99.90;;;;;;5095548;28;20566;-72
2023/12/12 11:56:57;;;;;;;1.10;1.00;;;8.90;99.90;;;;;;5093580;28;20273;-71
2023/12/12 11:59:25;;;;;;;2.95;1.35;;;8.90;99.90;;;;;;5093037;28;20257;-74
2023/12/12 12:01:53;;;;;;;1.50;1.20;;;9.00;99.90;;;;;;5093807;28;20636;-74
2023/12/12 12:04:21;;;;;;;1.95;1.45;;;9.00;99.90;;;;;;5093056;28;20208;-74
2023/12/12 12:06:49;;;;;;;3.05;1.20;;;9.00;99.90;;;;;;5093890;28;20695;-72
2023/12/12 12:09:17;;;;;;;1.95;1.15;;;8.90;99.90;;;;;;5092983;28;20418;-73
2023/12/12 12:11:46;;;;;;;1.33;1.10;;;9.00;99.90;;;;;;5093093;28;20224;-72
2023/12/12 12:14:17;;;;;;;2.38;1.17;;;8.90;99.90;;;;;;5092919;28;20243;-72
2023/12/12 12:16:44;;;;;;;1.65;1.00;;;9.00;99.90;;;;;;5088697;28;20242;-71
2023/12/12 12:19:30;;;;;;;3.25;1.10;;;9.00;99.90;;;;;;5092609;28;20729;-71
2023/12/12 12:22:02;;;;;;;1.42;1.30;;;9.00;99.90;;;;;;5090759;28;20311;-71
2023/12/12 12:24:29;;;;;;;1.88;1.15;;;9.10;99.90;;;;;;5090930;28;20648;-71
2023/12/12 12:26:56;;;;;;;1.00;0.90;;;9.00;99.90;;;;;;5092859;28;20259;-71
2023/12/12 12:29:24;;;;;;;3.83;1.60;;;9.00;99.90;;;;;;5092673;28;20722;-71
2023/12/12 12:31:51;;;;;;;1.83;1.15;;;9.00;99.90;;;;;;5093186;28;20246;-70
2023/12/12 12:34:18;;;;;;;1.40;1.00;;;9.00;99.90;;;;;;5092476;28;20206;-70
2023/12/12 12:36:46;;;;;;;1.25;1.00;;;9.00;99.90;;;;;;5092603;28;20247;-70
2023/12/12 12:39:14;;;;;;;2.05;1.30;;;9.10;99.90;;;;;;5091601;28;20208;-71
2023/12/12 12:41:43;;;;;;;2.60;1.27;;;9.10;99.90;;;;;;5092651;28;20230;-71
2023/12/12 12:44:10;;;;;;;1.63;1.20;;;9.10;99.90;;;;;;5093081;28;20554;-71
2023/12/12 12:46:39;;;;;;;1.10;1.00;;;9.10;99.90;;;;;;5092006;28;20586;-73
2023/12/12 12:49:05;;;;;;;1.63;1.00;;;9.10;99.90;;;;;;5093018;28;20200;-73
2023/12/12 12:51:33;;;;;;;1.70;1.35;;;9.10;99.90;;;;;;5092482;28;20773;-71
2023/12/12 12:53:59;;;;;;;1.55;1.42;;;9.10;99.90;;;;;;5092566;28;20236;-72
2023/12/12 12:56:26;;;;;;;2.10;1.40;;;9.10;99.90;;;;;;5092150;28;20231;-72
2023/12/12 12:58:53;;;;;;;1.60;1.50;;;9.00;99.90;;;;;;5091709;28;20215;-71
2023/12/12 13:01:21;;;;;;;2.22;1.33;;;9.00;99.90;;;;;;5096106;28;20774;-72
2023/12/12 13:03:49;;;;;;;1.98;1.65;;;9.00;99.90;;;;;;5092273;28;20582;-71
2023/12/12 13:06:17;;;;;;;1.50;1.40;;;9.00;99.90;;;;;;5092074;28;20210;-71
2023/12/12 13:08:45;;;;;;;1.58;1.48;;;9.10;99.90;;;;;;5092161;28;20201;-71
2023/12/12 13:11:12;;;;;;;1.55;1.30;;;9.10;99.90;;;;;;5092706;28;20314;-70
2023/12/12 13:13:39;;;;;;;2.03;1.70;;;9.20;99.90;;;;;;5092142;28;20219;-71
2023/12/12 13:16:07;;;;;;;2.55;1.25;;;9.20;99.90;;;;;;5091705;28;20605;-73
2023/12/12 13:18:33;;;;;;;3.45;1.70;;;9.30;99.90;;;;;;5091556;28;20296;-70
2023/12/12 13:21:01;;;;;;;1.60;1.50;;;9.40;99.90;;;;;;5092007;28;20224;-71
2023/12/12 13:23:28;;;;;;;1.75;1.45;;;9.50;99.90;;;;;;5094373;28;20226;-71
2023/12/12 13:25:55;;;;;;;2.20;1.83;;;9.50;99.90;;;;;;5091848;28;20201;-70
2023/12/12 13:28:22;;;;;;;2.08;1.88;;;9.50;99.90;;;;;;5091755;28;20213;-72
2023/12/12 13:30:49;;;;;;;1.45;1.35;;;9.50;99.90;;;;;;5089285;28;20229;-71
2023/12/12 13:33:16;;;;;;;1.38;1.00;;;9.50;99.90;;;;;;5092118;28;20215;-71
2023/12/12 13:35:42;;;;;;;1.25;1.13;;;9.40;99.90;;;;;;5154178;22;20776;-72
2023/12/12 13:38:10;;;;;;;2.50;0.90;;;9.40;99.90;;;;;;5071377;28;20285;-73
2023/12/12 13:40:37;;;;;;;1.52;1.15;;;9.30;99.90;;;;;;5069485;28;20596;-73
2023/12/12 13:43:04;;;;;;;1.50;1.02;;;9.30;99.90;;;;;;5051661;28;20209;-73
2023/12/12 13:45:32;;;;;;;1.70;1.45;;;9.20;99.90;;;;;;5051070;28;20204;-73
2023/12/12 13:47:58;;;;;;;1.48;1.00;;;9.10;99.90;;;;;;5051718;28;20202;-72
2023/12/12 13:50:25;;;;;;;1.58;1.08;;;9.20;99.90;;;;;;5052224;28;20228;-73
2023/12/12 13:52:52;;;;;;;1.35;0.90;;;9.20;99.90;;;;;;5054654;28;20210;-73
2023/12/12 13:55:21;;;;;;;2.22;1.55;;;9.20;99.90;;;;;;5051946;28;20297;-73
2023/12/12 13:57:48;;;;;;;1.75;0.93;;;9.20;99.90;;;;;;5051189;28;20203;-73
2023/12/12 14:00:17;;;;;;;1.73;1.08;;;9.30;99.90;;;;;;5052176;28;20279;-72
2023/12/12 14:02:44;;;;;;;1.27;1.17;;;9.40;99.90;;;;;;5051509;28;20215;-73
2023/12/12 14:05:10;;;;;;;1.00;0.88;;;9.50;99.90;;;;;;5052395;28;20204;-72
2023/12/12 14:07:37;;;;;;;1.30;1.20;;;9.50;99.90;;;;;;5051650;28;20265;-74
2023/12/12 14:10:05;;;;;;;1.10;0.98;;;9.50;99.90;;;;;;5051524;28;20204;-73
2023/12/12 14:12:34;;;;;;;1.65;1.10;;;9.50;99.90;;;;;;5051416;28;20314;-72
2023/12/12 14:15:00;;;;;;;1.25;1.15;;;9.60;99.90;;;;;;5051646;28;20637;-72
2023/12/12 14:17:27;;;;;;;1.42;1.30;;;9.60;99.90;;;;;;5050737;28;20225;-74
2023/12/12 14:19:54;;;;;;;1.00;0.90;;;9.60;99.90;;;;;;5051326;28;20212;-72
2023/12/12 14:22:20;;;;;;;0.90;0.75;;;9.60;99.90;;;;;;5051554;28;20263;-73
2023/12/12 14:24:49;;;;;;;1.02;0.93;;;9.50;99.90;;;;;;5050881;28;20211;-73
2023/12/12 14:27:16;;;;;;;1.15;1.00;;;9.50;99.90;;;;;;5050613;28;20210;-75
2023/12/12 14:29:44;;;;;;;1.15;0.95;;;9.40;99.90;;;;;;5049078;28;20225;-73
2023/12/12 14:32:11;;;;;;;1.48;1.13;;;9.30;99.90;;;;;;5050828;28;20235;-74
2023/12/12 14:34:39;;;;;;;1.85;1.27;;;9.30;99.90;;;;;;5050406;28;20208;-74
2023/12/12 14:37:05;;;;;;;4.03;1.50;;;9.20;99.90;;;;;;5050689;28;20222;-73
2023/12/12 14:39:32;;;;;;;1.35;1.20;;;9.20;99.90;;;;;;5051561;28;20309;-74
2023/12/12 14:41:59;;;;;;;1.33;1.10;;;9.20;99.90;;;;;;5051506;28;20220;-73
2023/12/12 14:44:25;;;;;;;1.00;0.90;;;9.20;99.90;;;;;;5050809;28;20208;-74
2023/12/12 14:46:54;;;;;;;2.20;1.10;;;9.10;99.90;;;;;;5050422;28;20210;-74
2023/12/12 14:49:22;;;;;;;1.73;1.13;;;9.10;99.90;;;;;;5050689;28;20209;-74
2023/12/12 14:51:48;;;;;;;1.73;1.60;;;9.10;99.90;;;;;;5054239;28;20226;-74
2023/12/12 14:54:15;;;;;;;1.35;1.23;;;9.10;99.90;;;;;;5050724;28;20205;-74
2023/12/12 14:56:42;;;;;;;1.33;1.08;;;9.00;99.90;;;;;;5050520;28;20265;-74
2023/12/12 14:59:09;;;;;;;4.88;1.45;;;9.00;99.90;;;;;;5051260;28;20213;-73
2023/12/12 15:01:36;;;;;;;1.80;1.20;;;9.00;99.90;;;;;;5051579;28;20230;-73
2023/12/12 15:04:05;;;;;;;1.60;1.33;;;9.00;99.90;;;;;;5054287;28;20197;-73
2023/12/12 15:06:32;;;;;;;1.05;0.95;;;9.00;99.90;;;;;;5050941;28;20215;-71
2023/12/12 15:08:59;;;;;;;1.50;1.10;;;8.90;99.90;;;;;;5054260;28;20214;-73
2023/12/12 15:11:25;;;;;;;1.50;1.40;;;8.90;99.90;;;;;;5054001;28;20580;-73
2023/12/12 15:13:52;;;;;;;1.15;1.05;;;8.90;99.90;;;;;;5053902;28;20213;-73
2023/12/12 15:16:19;;;;;;;2.58;1.63;;;8.80;99.90;;;;;;5053751;28;20227;-73
2023/12/12 15:18:46;;;;;;;1.48;1.25;;;8.80;99.90;;;;;;5053596;28;20214;-73
2023/12/12 15:21:15;;;;;;;1.52;1.20;;;8.80;99.90;;;;;;5053582;28;20240;-73
2023/12/12 15:23:42;;;;;;;1.35;1.25;;;8.70;99.90;;;;;;5057998;28;20708;-72
2023/12/12 15:26:09;;;;;;;2.10;1.63;;;8.70;99.90;;;;;;5053665;28;20239;-72
2023/12/12 15:28:35;;;;;;;1.88;1.40;;;8.60;99.90;;;;;;5053370;28;20252;-73
2023/12/12 15:31:02;;;;;;;2.22;1.60;;;8.60;99.90;;;;;;5056957;28;20237;-73
2023/12/12 15:33:29;;;;;;;1.58;1.40;;;8.60;99.90;;;;;;5049961;28;20585;-73
2023/12/12 15:35:57;;;;;;;1.30;1.20;;;8.60;99.90;;;;;;5052988;28;20235;-72
2023/12/12 15:38:26;;;;;;;1.80;1.65;;;8.60;99.90;;;;;;5053365;28;20214;-73
2023/12/12 15:40:52;;;;;;;1.20;1.10;;;8.50;99.90;;;;;;5053645;28;20229;-73
2023/12/12 15:43:19;;;;;;;2.17;1.65;;;8.50;99.90;;;;;;5053749;28;20205;-73
2023/12/12 15:45:46;;;;;;;2.10;1.67;;;8.50;99.90;;;;;;5052709;28;20209;-73
2023/12/12 15:48:12;;;;;;;4.57;3.55;;;8.50;99.90;;;;;;5052953;28;20233;-73
2023/12/12 15:50:39;;;;;;;1.92;1.73;;;8.50;99.90;;;;;;5053120;28;20229;-73
2023/12/12 15:53:06;;;;;;;5.60;2.72;;;8.50;99.90;;;;;;5053164;28;20211;-73
2023/12/12 15:55:34;;;;;;;2.00;1.80;;;8.50;99.90;;;;;;5053202;28;20202;-73
2023/12/12 15:58:01;;;;;;;2.38;1.45;;;8.50;99.90;;;;;;5053276;28;20218;-73
2023/12/12 16:00:28;;;;;;;1.80;1.70;;;8.50;99.90;;;;;;5056347;28;20636;-72
2023/12/12 16:02:54;;;;;;;2.25;1.48;;;8.50;99.90;;;;;;5053377;28;20206;-73
2023/12/12 16:05:22;;;;;;;5.10;1.57;;;8.50;99.90;;;;;;5053040;28;20586;-73
2023/12/12 16:07:49;;;;;;;3.10;1.60;;;8.50;99.90;;;;;;5052604;28;20212;-73
2023/12/12 16:10:15;;;;;;;5.90;2.33;;;8.50;99.90;;;;;;5052763;28;20225;-73
2023/12/12 16:12:43;;;;;;;1.83;1.63;;;8.50;99.90;;;;;;5052735;28;20662;-74
2023/12/12 16:15:10;;;;;;;1.67;1.58;;;8.50;99.90;;;;;;5052793;28;20276;-74
2023/12/12 16:17:38;;;;;;;1.70;1.60;;;8.50;99.90;;;;;;5052449;28;20227;-73
2023/12/12 16:20:06;;;;;;;3.63;1.92;;;8.50;99.90;;;;;;5052640;28;20206;-73
2023/12/12 16:22:33;;;;;;;1.75;1.50;;;8.50;99.90;;;;;;5052926;28;20257;-73
2023/12/12 16:25:00;;;;;;;3.42;2.25;;;8.50;99.90;;;;;;5052372;28;20211;-73
2023/12/12 16:27:27;;;;;;;1.88;1.60;;;8.50;99.90;;;;;;5051690;28;20211;-73
2023/12/12 16:29:55;;;;;;;2.50;2.00;;;8.50;99.90;;;;;;5055993;28;20454;-74
2023/12/12 16:32:22;;;;;;;3.22;1.40;;;8.50;99.90;;;;;;5050979;28;20485;-73
2023/12/12 16:34:48;;;;;;;2.05;1.58;;;8.50;99.90;;;;;;5055287;28;20296;-73
2023/12/12 16:37:15;;;;;;;3.03;2.50;;;8.50;99.90;;;;;;5051478;28;20226;-73
2023/12/12 16:39:43;;;;;;;2.22;1.70;;;8.50;99.90;;;;;;5051444;28;20586;-73
2023/12/12 16:42:14;;;;;;;4.20;2.05;;;8.50;99.90;;;;;;5051414;28;20231;-74
2023/12/12 16:44:41;;;;;;;2.53;2.03;;;8.50;99.90;;;;;;5048492;28;20219;-74
2023/12/12 16:47:09;;;;;;;2.35;2.05;;;8.40;99.90;;;;;;5051431;28;20257;-74
2023/12/12 16:49:37;;;;;;;2.45;2.22;;;8.40;99.90;;;;;;5051428;28;20692;-73
2023/12/12 16:52:04;;;;;;;2.17;1.98;;;8.30;99.90;;;;;;5051245;28;20219;-73
2023/12/12 16:54:31;;;;;;;3.67;1.58;;;8.30;99.90;;;;;;5051267;28;20263;-73
2023/12/12 16:56:59;;;;;;;2.60;2.30;;;8.40;99.90;;;;;;5056524;28;20661;-73
2023/12/12 16:59:25;;;;;;;3.45;2.00;;;8.40;99.90;;;;;;5051140;28;20276;-73
2023/12/12 17:01:55;;;;;;;2.45;1.80;;;8.50;99.90;;;;;;5051141;28;20258;-73
2023/12/12 17:04:26;;;;;;;2.05;1.60;;;8.50;99.90;;;;;;5050901;28;20243;-73
2023/12/12 17:06:53;;;;;;;1.85;1.75;;;8.60;99.90;;;;;;5051437;28;20206;-73
2023/12/12 17:09:21;;;;;;;1.80;1.70;;;8.60;99.90;;;;;;5051175;28;20206;-73
2023/12/12 17:11:48;;;;;;;2.92;1.73;;;8.70;99.90;;;;;;5051089;28;20276;-74
2023/12/12 17:14:14;;;;;;;1.92;1.60;;;8.70;99.90;;;;;;5050930;28;20210;-73
2023/12/12 17:16:43;;;;;;;1.55;1.45;;;8.80;99.90;;;;;;5051519;28;20221;-73
2023/12/12 17:19:10;;;;;;;2.50;2.28;;;8.80;99.90;;;;;;5056761;28;20229;-73
2023/12/12 17:21:38;;;;;;;2.72;2.10;;;8.90;99.90;;;;;;5051878;28;20690;-74